createdAt,value
2022-08-23T00:03:00.882Z,10.70
2022-08-23T00:07:20.293Z,12.45
2022-08-23T00:11:43.924Z,11.63
2022-08-23T00:16:00.646Z,15.00
2022-08-23T00:20:18.756Z,13.90
2022-08-23T00:24:39.128Z,16.30
2022-08-23T00:28:56.797Z,14.60
2022-08-23T00:33:13.058Z,11.25
2022-08-23T00:37:31.333Z,15.65
2022-08-23T00:41:48.987Z,13.68
2022-08-23T00:46:42.009Z,10.40
2022-08-23T00:51:30.950Z,12.70
2022-08-23T00:56:01.190Z,13.38
2022-08-23T01:00:18.142Z,12.10
2022-08-23T01:04:40.381Z,19.42
2022-08-23T01:09:00.158Z,20.30
2022-08-23T01:13:26.360Z,19.42
2022-08-23T01:18:02.553Z,20.67
2022-08-23T01:22:28.094Z,17.58
2022-08-23T01:26:44.371Z,15.93
2022-08-23T01:31:01.351Z,18.37
2022-08-23T01:39:40.740Z,17.48
2022-08-23T01:43:57.051Z,18.80
2022-08-23T01:48:14.243Z,22.62
2022-08-23T01:52:30.279Z,19.12
2022-08-23T01:56:46.556Z,15.60
2022-08-23T02:01:04.862Z,17.77
2022-08-23T02:05:21.037Z,20.62
2022-08-23T02:09:37.433Z,23.90
2022-08-23T02:13:54.941Z,21.10
2022-08-23T02:18:12.838Z,26.25
2022-08-23T02:22:30.449Z,21.45
2022-08-23T02:26:49.875Z,20.52
2022-08-23T02:31:12.948Z,18.27
2022-08-23T02:35:30.060Z,18.73
2022-08-23T02:39:46.267Z,22.70
2022-08-23T02:44:02.321Z,23.50
2022-08-23T02:48:18.301Z,20.37
2022-08-23T02:52:35.120Z,20.20
2022-08-23T02:56:52.923Z,19.10
2022-08-23T03:01:19.745Z,24.35
2022-08-23T03:05:35.770Z,23.52
2022-08-23T03:09:51.803Z,31.55
2022-08-23T03:14:08.413Z,20.42
2022-08-23T03:18:24.519Z,21.05
2022-08-23T03:22:40.456Z,19.55
2022-08-23T03:27:05.275Z,28.02
2022-08-23T03:31:21.321Z,91.10
2022-08-23T03:35:40.490Z,17.62
2022-08-23T03:39:56.594Z,19.27
2022-08-23T03:44:12.773Z,19.75
2022-08-23T03:48:28.880Z,18.73
2022-08-23T03:52:44.963Z,17.05
2022-08-23T03:57:04.154Z,19.70
2022-08-23T04:01:20.924Z,20.10
2022-08-23T04:05:39.270Z,26.30
2022-08-23T04:09:55.647Z,26.52
2022-08-23T04:14:13.120Z,15.77
2022-08-23T04:18:31.733Z,18.15
2022-08-23T04:22:51.654Z,15.60
2022-08-23T04:27:08.024Z,17.00
2022-08-23T04:31:26.699Z,19.15
2022-08-23T04:35:42.985Z,21.45
2022-08-23T04:40:17.830Z,18.92
2022-08-23T04:44:33.948Z,21.00
2022-08-23T04:48:50.036Z,21.58
2022-08-23T04:53:06.184Z,18.85
2022-08-23T04:57:22.157Z,17.50
2022-08-23T05:01:38.229Z,17.48
2022-08-23T05:05:54.841Z,20.70
2022-08-23T05:10:13.206Z,21.20
2022-08-23T05:14:29.260Z,19.08
2022-08-23T05:18:45.579Z,25.00
2022-08-23T05:23:02.584Z,18.42
2022-08-23T05:27:18.599Z,17.17
2022-08-23T05:31:34.622Z,17.87
2022-08-23T05:35:51.078Z,20.65
2022-08-23T05:40:07.645Z,20.20
2022-08-23T05:44:23.844Z,19.27
2022-08-23T05:48:41.394Z,15.38
2022-08-23T05:52:58.632Z,19.85
2022-08-23T05:57:14.551Z,18.83
2022-08-23T06:01:32.579Z,20.75
2022-08-23T06:05:48.516Z,26.33
2022-08-23T06:10:05.654Z,21.23
2022-08-23T06:14:21.746Z,22.60
2022-08-23T06:18:38.027Z,22.80
2022-08-23T06:22:54.212Z,16.48
2022-08-23T06:27:10.282Z,20.60
2022-08-23T06:31:45.516Z,20.50
2022-08-23T06:36:07.020Z,20.48
2022-08-23T06:40:23.002Z,16.10
2022-08-23T06:44:39.546Z,22.77
2022-08-23T06:48:57.969Z,22.98
2022-08-23T06:53:13.922Z,18.50
2022-08-23T06:57:30.387Z,21.17
2022-08-23T07:01:53.612Z,14.48
2022-08-23T07:06:09.631Z,15.57
2022-08-23T07:10:25.599Z,19.42
2022-08-23T07:14:42.608Z,22.23
2022-08-23T07:18:58.830Z,22.45
2022-08-23T07:23:17.658Z,21.23
2022-08-23T07:27:33.595Z,17.65
2022-08-23T07:31:55.453Z,23.52
2022-08-23T07:36:14.367Z,20.60
2022-08-23T07:40:30.461Z,16.50
2022-08-23T07:44:50.641Z,27.15
2022-08-23T07:49:09.023Z,23.25
2022-08-23T07:53:37.359Z,22.40
2022-08-23T07:57:54.490Z,23.40
2022-08-23T08:02:10.538Z,23.35
2022-08-23T08:06:33.674Z,18.50
2022-08-23T08:15:10.494Z,20.60
2022-08-23T08:19:26.611Z,22.85
2022-08-23T08:23:42.587Z,17.15
2022-08-23T08:27:59.273Z,23.27
2022-08-23T08:32:15.789Z,19.45
2022-08-23T08:36:37.887Z,19.37
2022-08-23T08:41:15.140Z,20.23
2022-08-23T08:45:39.414Z,20.35
2022-08-23T08:50:24.354Z,22.10
2022-08-23T08:54:46.062Z,20.73
2022-08-23T08:59:07.643Z,21.30
2022-08-23T09:03:24.491Z,18.80
2022-08-23T09:07:59.048Z,21.48
2022-08-23T09:12:25.077Z,19.73
2022-08-23T09:16:50.438Z,18.17
2022-08-23T09:21:08.548Z,18.25
2022-08-23T09:25:24.938Z,18.42
2022-08-23T09:29:57.278Z,16.02
2022-08-23T09:34:22.636Z,17.13
2022-08-23T09:38:43.277Z,22.48
2022-08-23T09:43:19.779Z,16.83
2022-08-23T09:47:44.553Z,17.52
2022-08-23T09:52:11.245Z,17.17
2022-08-23T09:56:35.732Z,17.50
2022-08-23T10:01:21.112Z,19.20
2022-08-23T10:05:40.305Z,16.10
2022-08-23T10:10:14.229Z,15.48
2022-08-23T10:14:33.088Z,15.82
2022-08-23T10:19:08.315Z,14.45
2022-08-23T10:23:34.949Z,16.08
2022-08-23T10:28:46.755Z,11.20
2022-08-23T10:33:18.407Z,15.65
2022-08-23T10:37:52.888Z,10.35
2022-08-23T10:42:23.991Z,11.90
2022-08-23T10:46:48.850Z,12.45
2022-08-23T10:51:31.684Z,11.98
2022-08-23T10:56:06.080Z,10.68
2022-08-23T11:00:27.436Z,12.13
2022-08-23T11:04:55.472Z,12.18
2022-08-23T11:09:20.897Z,10.65
2022-08-23T11:13:36.983Z,13.13
2022-08-23T11:17:57.692Z,11.95
2022-08-23T11:22:15.497Z,11.68
2022-08-23T11:26:41.305Z,10.55
2022-08-23T11:30:57.698Z,10.88
2022-08-23T11:35:54.104Z,11.30
2022-08-23T11:40:17.482Z,11.68
2022-08-23T11:44:42.125Z,9.45
2022-08-23T11:49:29.042Z,10.18
2022-08-23T11:53:54.624Z,8.38
2022-08-23T11:58:44.183Z,10.95
2022-08-23T12:03:24.946Z,8.32
2022-08-23T12:08:05.966Z,11.88
2022-08-23T12:12:37.638Z,10.30
2022-08-23T12:16:56.739Z,10.70
2022-08-23T12:21:18.176Z,8.10
2022-08-23T12:25:34.949Z,8.98
2022-08-23T12:30:06.521Z,7.55
2022-08-23T12:34:34.609Z,8.07
2022-08-23T12:38:59.728Z,7.35
2022-08-23T12:43:22.863Z,8.05
2022-08-23T12:47:43.057Z,7.95
2022-08-23T12:52:02.296Z,6.85
2022-08-23T12:56:22.786Z,8.13
2022-08-23T13:00:56.926Z,9.88
2022-08-23T13:05:19.679Z,8.65
2022-08-23T13:13:55.446Z,10.35
2022-08-23T13:18:22.498Z,9.25
2022-08-23T13:22:40.082Z,12.23
2022-08-23T13:27:10.285Z,8.98
2022-08-23T13:31:26.354Z,9.13
2022-08-23T13:36:05.367Z,9.80
2022-08-23T13:40:32.562Z,7.80
2022-08-23T13:44:48.635Z,8.25
2022-08-23T13:49:11.643Z,8.57
2022-08-23T13:53:37.608Z,11.20
2022-08-23T13:58:00.556Z,10.63
2022-08-23T14:06:34.021Z,8.43
2022-08-23T14:10:50.336Z,10.68
2022-08-23T14:15:08.310Z,10.45
2022-08-23T14:24:00.622Z,11.07
2022-08-23T14:28:16.684Z,9.55
2022-08-23T14:32:33.301Z,7.93
2022-08-23T14:41:29.371Z,9.60
2022-08-23T14:45:45.382Z,8.55
2022-08-23T14:50:02.189Z,6.62
2022-08-23T14:54:24.255Z,9.60
2022-08-23T14:58:40.455Z,8.27
2022-08-23T15:02:56.967Z,8.30
2022-08-23T15:07:20.166Z,8.73
2022-08-23T15:16:14.938Z,7.12
2022-08-23T15:20:37.581Z,7.50
2022-08-23T15:24:53.547Z,7.15
2022-08-23T15:29:09.729Z,8.27
2022-08-23T15:33:30.661Z,7.53
2022-08-23T15:37:47.213Z,6.68
2022-08-23T15:42:03.279Z,10.32
2022-08-23T15:46:23.039Z,7.07
2022-08-23T15:50:44.019Z,6.78
2022-08-23T15:54:59.955Z,8.75
2022-08-23T15:59:18.055Z,7.62
2022-08-23T16:03:34.171Z,5.97
2022-08-23T16:07:55.486Z,7.28
2022-08-23T16:12:13.941Z,8.20
2022-08-23T16:16:34.391Z,7.68
2022-08-23T16:20:52.184Z,7.15
2022-08-23T16:25:11.250Z,5.50
2022-08-23T16:29:32.130Z,7.87
2022-08-23T16:33:48.436Z,5.32
2022-08-23T16:38:04.888Z,8.82
2022-08-23T16:42:20.874Z,5.90
2022-08-23T16:46:37.109Z,6.10
2022-08-23T16:50:53.595Z,7.20
2022-08-23T16:55:11.692Z,6.65
2022-08-23T16:59:28.930Z,5.85
2022-08-23T17:03:45.181Z,6.30
2022-08-23T17:08:02.015Z,6.00
2022-08-23T17:12:19.129Z,6.47
2022-08-23T17:16:36.902Z,5.10
2022-08-23T17:20:53.304Z,6.85
2022-08-23T17:25:11.316Z,9.88
2022-08-23T17:29:27.838Z,6.12
2022-08-23T17:33:50.607Z,6.35
2022-08-23T17:38:07.434Z,9.25
2022-08-23T17:42:24.591Z,6.68
2022-08-23T17:46:43.016Z,5.22
2022-08-23T17:51:01.034Z,6.32
2022-08-23T17:55:17.723Z,5.22
2022-08-23T17:59:35.372Z,6.47
2022-08-23T18:03:51.486Z,7.30
2022-08-23T18:08:08.519Z,4.72
2022-08-23T18:12:24.852Z,5.62
2022-08-23T18:16:41.315Z,7.55
2022-08-23T18:21:05.354Z,4.87
2022-08-23T18:25:21.511Z,5.85
2022-08-23T18:29:38.600Z,6.37
2022-08-23T18:33:59.758Z,5.30
2022-08-23T18:38:16.869Z,5.47
2022-08-23T18:42:32.945Z,7.95
2022-08-23T18:46:49.463Z,5.22
2022-08-23T18:51:17.906Z,5.28
2022-08-23T18:55:34.660Z,6.65
2022-08-23T18:59:51.029Z,4.70
2022-08-23T19:04:08.788Z,4.53
2022-08-23T19:08:24.866Z,4.90
2022-08-23T19:12:48.730Z,5.18
2022-08-23T19:17:10.081Z,7.57
2022-08-23T19:21:28.049Z,5.93
2022-08-23T19:25:45.481Z,6.28
2022-08-23T19:30:01.783Z,4.53
2022-08-23T19:34:22.694Z,5.30
2022-08-23T19:38:38.915Z,5.93
2022-08-23T19:42:56.394Z,4.82
2022-08-23T19:47:19.329Z,5.10
2022-08-23T19:51:38.110Z,5.78
2022-08-23T19:55:54.282Z,4.30
2022-08-23T20:00:19.077Z,7.95
2022-08-23T20:04:36.745Z,5.97
2022-08-23T20:08:52.859Z,11.07
2022-08-23T20:13:10.539Z,4.87
2022-08-23T20:17:27.178Z,6.70
2022-08-23T20:21:43.571Z,6.07
2022-08-23T20:25:59.533Z,9.43
2022-08-23T20:30:15.917Z,5.10
2022-08-23T20:34:33.502Z,6.57
2022-08-23T20:38:53.099Z,6.75
2022-08-23T20:43:09.250Z,7.32
2022-08-23T20:47:25.437Z,7.78
2022-08-23T20:51:41.549Z,7.53
2022-08-23T20:55:59.540Z,7.62
2022-08-23T21:00:16.266Z,7.70
2022-08-23T21:04:32.527Z,7.78
2022-08-23T21:08:53.866Z,9.52
2022-08-23T21:13:10.505Z,6.90
2022-08-23T21:17:27.043Z,7.43
2022-08-23T21:21:43.372Z,8.57
2022-08-23T21:25:59.527Z,8.00
2022-08-23T21:30:16.168Z,7.40
2022-08-23T21:34:32.160Z,8.93
2022-08-23T21:38:48.812Z,8.13
2022-08-23T21:43:05.377Z,8.00
2022-08-23T21:47:21.378Z,9.60
2022-08-23T21:51:39.022Z,10.63
2022-08-23T21:55:55.012Z,9.75
2022-08-23T22:00:16.103Z,8.30
2022-08-23T22:04:32.237Z,9.43
2022-08-23T22:08:48.222Z,10.20
2022-08-23T22:13:05.929Z,9.30
2022-08-23T22:17:22.348Z,9.45
2022-08-23T22:21:38.454Z,8.18
2022-08-23T22:25:59.142Z,9.57
2022-08-23T22:30:16.131Z,9.40
2022-08-23T22:34:32.145Z,8.35
2022-08-23T22:38:49.204Z,9.00
2022-08-23T22:43:05.749Z,9.43
2022-08-23T22:47:21.666Z,10.30
2022-08-23T22:51:38.013Z,9.65
2022-08-23T22:55:54.056Z,11.23
2022-08-23T23:00:11.248Z,11.35
2022-08-23T23:04:28.317Z,8.85
2022-08-23T23:08:44.431Z,14.38
2022-08-23T23:13:00.555Z,10.77
2022-08-23T23:17:16.650Z,9.68
2022-08-23T23:21:37.845Z,12.15
2022-08-23T23:25:54.159Z,17.25
2022-08-23T23:30:11.459Z,9.65
2022-08-23T23:34:28.383Z,11.40
2022-08-23T23:38:44.821Z,11.95
2022-08-23T23:43:00.856Z,12.10
2022-08-23T23:47:17.958Z,11.07
2022-08-23T23:51:34.406Z,10.45
2022-08-23T23:55:58.462Z,10.52
